Time;durP1;ratioP1;P1;durP2;ratioP2;P2;SDS_P1;SDS_P2;PMS_P1;PMS_P2;Temp;Humidity;BMP_temperature;BMP_pressure;BME280_temperature;BME280_humidity;BME280_pressure;Samples;Min_cycle;Max_cycle;Signal;HPM_P1;HPM_P2
2023/03/17 00:01:53;;;;;;;0.60;0.60;;;;;;;5.63;100.00;99659.78;5031018;28;20244;-64
2023/03/17 00:04:22;;;;;;;0.70;0.70;;;;;;;5.55;100.00;99647.13;5031100;28;20202;-65
2023/03/17 00:06:49;;;;;;;0.60;0.60;;;;;;;5.63;100.00;99664.84;5029177;28;20205;-64
2023/03/17 00:09:18;;;;;;;0.70;0.70;;;;;;;5.63;100.00;99664.84;5031678;28;20689;-65
2023/03/17 00:11:46;;;;;;;0.73;0.73;;;;;;;5.63;100.00;99664.84;5031346;28;20362;-65
2023/03/17 00:14:13;;;;;;;0.60;0.60;;;;;;;5.67;100.00;99661.44;5031555;28;20743;-65
2023/03/17 00:16:43;;;;;;;0.60;0.60;;;;;;;5.65;100.00;99668.25;5029392;28;20205;-65
2023/03/17 00:19:16;;;;;;;0.70;0.70;;;;;;;5.65;100.00;99663.16;5031425;28;20676;-65
2023/03/17 00:21:45;;;;;;;0.60;0.60;;;;;;;5.64;100.00;99666.56;5031250;28;20197;-65
2023/03/17 00:24:12;;;;;;;0.60;0.60;;;;;;;5.66;100.00;99669.91;5030668;28;20259;-65
2023/03/17 00:26:39;;;;;;;0.70;0.70;;;;;;;5.66;100.00;99662.28;5026761;28;20202;-65
2023/03/17 00:29:07;;;;;;;0.60;0.60;;;;;;;5.66;100.00;99654.66;5028787;28;20658;-65
2023/03/17 00:31:34;;;;;;;0.53;0.53;;;;;;;5.70;100.00;99662.28;5029240;28;20269;-65
2023/03/17 00:34:01;;;;;;;0.80;0.80;;;;;;;5.69;100.00;99669.91;5031284;28;21288;-65
2023/03/17 00:36:30;;;;;;;0.70;0.70;;;;;;;5.71;100.00;99663.13;5031248;28;20669;-65
2023/03/17 00:38:59;;;;;;;0.70;0.70;;;;;;;5.65;100.00;99665.72;5031107;28;20631;-65
2023/03/17 00:41:28;;;;;;;0.50;0.50;;;;;;;5.72;100.00;99674.97;5029589;28;20259;-65
2023/03/17 00:43:56;;;;;;;0.70;0.70;;;;;;;5.71;100.00;99674.16;5031123;28;20569;-65
2023/03/17 00:46:34;;;;;;;0.70;0.70;;;;;;;5.71;100.00;99668.22;5029034;28;20742;-65
2023/03/17 00:49:02;;;;;;;0.60;0.60;;;;;;;5.66;100.00;99654.66;5030300;28;20193;-65
2023/03/17 00:51:30;;;;;;;0.70;0.70;;;;;;;5.68;100.00;99664.00;5031108;28;20708;-65
2023/03/17 00:53:58;;;;;;;0.60;0.60;;;;;;;5.75;100.00;99672.44;5025917;28;20219;-65
2023/03/17 00:56:24;;;;;;;0.50;0.50;;;;;;;5.77;100.00;99670.72;5031203;28;20198;-65
2023/03/17 00:58:51;;;;;;;0.70;0.70;;;;;;;5.74;100.00;99665.66;5030657;28;20209;-65
2023/03/17 01:01:18;;;;;;;0.73;0.73;;;;;;;5.71;100.00;99671.59;5026335;28;20209;-65
2023/03/17 01:03:45;;;;;;;0.70;0.70;;;;;;;5.70;100.00;99669.91;5028661;28;20201;-64
2023/03/17 01:06:15;;;;;;;0.50;0.50;;;;;;;5.71;100.00;99673.31;5027891;28;20197;-63
2023/03/17 01:08:43;;;;;;;0.60;0.60;;;;;;;5.70;100.00;99669.06;5030885;28;20692;-63
2023/03/17 01:11:17;;;;;;;0.60;0.60;;;;;;;5.71;100.00;99673.31;5030606;28;20534;-63
2023/03/17 01:13:44;;;;;;;0.70;0.70;;;;;;;5.77;100.00;99678.34;5031144;28;20201;-63
2023/03/17 01:16:12;;;;;;;0.67;0.67;;;;;;;5.74;100.00;99679.22;5033652;28;20288;-63
2023/03/17 01:18:39;;;;;;;0.60;0.60;;;;;;;5.73;100.00;99687.69;5032330;28;20209;-63
2023/03/17 01:21:06;;;;;;;0.60;0.60;;;;;;;5.79;100.00;99691.88;5036936;28;20197;-63
2023/03/17 01:23:33;;;;;;;0.57;0.57;;;;;;;5.78;100.00;99685.13;5037063;28;20193;-63
2023/03/17 01:26:00;;;;;;;0.70;0.70;;;;;;;5.79;100.00;99702.06;5035201;28;20220;-63
2023/03/17 01:28:28;;;;;;;0.60;0.60;;;;;;;5.78;100.00;99705.47;5036384;28;20244;-63
2023/03/17 01:30:55;;;;;;;0.70;0.70;;;;;;;5.73;100.00;99692.78;5033111;28;20205;-63
2023/03/17 01:33:22;;;;;;;0.77;0.77;;;;;;;5.75;100.00;99692.78;5036475;28;20229;-63
2023/03/17 01:35:51;;;;;;;0.60;0.60;;;;;;;5.74;100.00;99698.72;5034782;28;20193;-63
2023/03/17 01:38:18;;;;;;;0.90;0.90;;;;;;;5.76;100.00;99702.94;5034839;28;20194;-63
2023/03/17 01:40:48;;;;;;;0.50;0.50;;;;;;;5.79;100.00;99707.16;5029626;28;20214;-66
2023/03/17 01:43:21;;;;;;;0.60;0.60;;;;;;;5.75;100.00;99698.69;5035749;28;20194;-63
2023/03/17 01:46:26;;;;;;;0.63;0.63;;;;;;;5.68;100.00;99701.31;5034736;28;20247;-63
2023/03/17 01:49:06;;;;;;;0.60;0.60;;;;;;;5.76;100.00;99704.63;5023128;28;20205;-63
2023/03/17 01:51:38;;;;;;;0.50;0.50;;;;;;;5.81;100.00;99710.53;5034563;28;20695;-63
2023/03/17 01:54:08;;;;;;;0.50;0.50;;;;;;;5.79;100.00;99714.78;5031470;28;20205;-63
2023/03/17 01:56:36;;;;;;;0.50;0.50;;;;;;;5.76;100.00;99702.09;5034003;28;20207;-63
2023/03/17 01:59:07;;;;;;;0.73;0.73;;;;;;;5.80;100.00;99711.41;5036953;28;20194;-63
2023/03/17 02:01:38;;;;;;;0.50;0.50;;;;;;;5.82;100.00;99712.22;5036082;28;20197;-63
2023/03/17 02:04:08;;;;;;;0.70;0.70;;;;;;;5.85;100.00;99717.28;5036482;28;20232;-63
2023/03/17 02:06:35;;;;;;;0.50;0.50;;;;;;;5.84;100.00;99715.63;5035137;28;20253;-63
2023/03/17 02:09:02;;;;;;;0.63;0.63;;;;;;;5.83;100.00;99719.00;5036639;28;20207;-63
2023/03/17 02:11:30;;;;;;;0.50;0.50;;;;;;;5.80;100.00;99724.13;5036452;28;20588;-63
2023/03/17 02:13:57;;;;;;;0.70;0.70;;;;;;;5.81;100.00;99729.19;5036264;28;20197;-63
2023/03/17 02:16:25;;;;;;;0.50;0.50;;;;;;;5.84;100.00;99725.78;5034525;28;20670;-62
2023/03/17 02:18:52;;;;;;;0.70;0.70;;;;;;;5.85;100.00;99737.63;5036748;28;20211;-65
2023/03/17 02:21:41;;;;;;;0.60;0.60;;;;;;;5.83;100.00;99726.63;5031756;28;20205;-63
2023/03/17 02:24:16;;;;;;;0.60;0.60;;;;;;;5.84;100.00;99728.34;5036552;28;20220;-63
2023/03/17 02:26:45;;;;;;;0.90;0.90;;;;;;;5.87;100.00;99728.34;5028451;28;20244;-64
2023/03/17 02:29:13;;;;;;;0.87;0.87;;;;;;;5.87;100.00;99720.72;5033400;28;20197;-64
2023/03/17 02:31:39;;;;;;;0.60;0.60;;;;;;;5.83;100.00;99721.56;5032756;28;20221;-63
2023/03/17 02:34:07;;;;;;;0.60;0.60;;;;;;;5.80;100.00;99729.19;5033348;28;20698;-64
2023/03/17 02:36:34;;;;;;;0.50;0.50;;;;;;;5.83;100.00;99735.13;5032390;28;20197;-63
2023/03/17 02:39:03;;;;;;;0.53;0.53;;;;;;;5.86;100.00;99744.47;5029923;28;20198;-64
2023/03/17 02:41:30;;;;;;;0.70;0.70;;;;;;;5.85;100.00;99742.72;5032910;28;20223;-64
2023/03/17 02:43:57;;;;;;;0.50;0.50;;;;;;;5.78;100.00;99733.47;5032879;28;20209;-64
2023/03/17 02:46:23;;;;;;;0.83;0.83;;;;;;;5.89;100.00;99744.44;5031828;28;20734;-64
2023/03/17 02:48:50;;;;;;;0.60;0.60;;;;;;;5.93;100.00;99748.66;5030633;28;20682;-63
2023/03/17 02:51:17;;;;;;;0.50;0.50;;;;;;;5.97;100.00;99746.94;5030500;28;20209;-64
2023/03/17 02:53:44;;;;;;;0.60;0.60;;;;;;;6.00;100.00;99757.97;5032507;28;20205;-63
2023/03/17 02:56:12;;;;;;;0.50;0.50;;;;;;;6.00;100.00;99747.78;5031220;28;20228;-63
2023/03/17 02:58:39;;;;;;;0.60;0.60;;;;;;;6.08;100.00;99761.28;5033023;28;20205;-63
2023/03/17 03:01:06;;;;;;;0.50;0.50;;;;;;;6.09;100.00;99757.88;5028900;28;20672;-64
2023/03/17 03:03:32;;;;;;;0.60;0.60;;;;;;;6.12;100.00;99768.06;5030830;28;20582;-63
2023/03/17 03:05:59;;;;;;;0.70;0.70;;;;;;;6.12;100.00;99764.66;5030392;28;20197;-64
2023/03/17 03:08:26;;;;;;;0.50;0.50;;;;;;;5.99;100.00;99746.06;5030549;28;20209;-64
2023/03/17 03:10:54;;;;;;;0.70;0.70;;;;;;;6.12;100.00;99764.66;5032154;28;20300;-63
2023/03/17 03:13:22;;;;;;;0.67;0.67;;;;;;;6.10;100.00;99769.78;5029642;28;20313;-63
2023/03/17 03:15:49;;;;;;;0.90;0.90;;;;;;;6.06;100.00;99772.34;5027705;28;20296;-60
2023/03/17 03:18:16;;;;;;;0.70;0.70;;;;;;;6.07;100.00;99774.03;5032184;28;20204;-60
2023/03/17 03:20:45;;;;;;;0.70;0.70;;;;;;;6.06;100.00;99777.41;5032107;28;20201;-60
2023/03/17 03:23:12;;;;;;;0.70;0.70;;;;;;;6.08;100.00;99781.63;5015188;28;20221;-60
2023/03/17 03:25:40;;;;;;;0.60;0.60;;;;;;;6.10;100.00;99774.00;5020909;28;20202;-60
2023/03/17 03:28:08;;;;;;;0.60;0.60;;;;;;;6.03;100.00;99770.66;5030059;28;20255;-60
2023/03/17 03:30:38;;;;;;;0.63;0.63;;;;;;;6.02;100.00;99768.97;5032041;28;20193;-60
2023/03/17 03:33:05;;;;;;;0.60;0.60;;;;;;;5.99;100.00;99776.59;5036791;28;20275;-60
2023/03/17 03:35:33;;;;;;;0.57;0.57;;;;;;;5.95;100.00;99774.94;5043962;28;20212;-62
2023/03/17 03:38:00;;;;;;;0.80;0.80;;;;;;;5.88;100.00;99769.91;5038578;28;20205;-60
2023/03/17 03:40:27;;;;;;;0.70;0.70;;;;;;;5.92;100.00;99779.19;5037624;28;20198;-60
2023/03/17 03:42:54;;;;;;;0.60;0.60;;;;;;;5.92;100.00;99785.13;5041206;28;20197;-60
2023/03/17 03:45:21;;;;;;;0.80;0.80;;;;;;;5.90;100.00;99791.94;5037627;28;20193;-60
2023/03/17 03:47:49;;;;;;;0.60;0.60;;;;;;;5.88;100.00;99783.44;5040055;28;20612;-60
2023/03/17 03:50:16;;;;;;;0.70;0.70;;;;;;;5.95;100.00;99785.09;5044365;28;20204;-60
2023/03/17 03:52:43;;;;;;;0.63;0.63;;;;;;;5.92;100.00;99784.28;5036159;28;20240;-60
2023/03/17 03:55:10;;;;;;;0.50;0.50;;;;;;;5.92;100.00;99785.13;5035882;28;20586;-60
2023/03/17 03:57:37;;;;;;;0.70;0.70;;;;;;;5.94;100.00;99793.63;5032856;28;20205;-60
2023/03/17 04:00:06;;;;;;;0.57;0.57;;;;;;;5.95;100.00;99789.34;5038006;28;20672;-60
2023/03/17 04:02:33;;;;;;;0.60;0.60;;;;;;;5.92;100.00;99792.75;5042108;28;20201;-60
2023/03/17 04:05:01;;;;;;;0.53;0.53;;;;;;;5.83;100.00;99795.31;5042658;28;20202;-60
2023/03/17 04:07:29;;;;;;;0.60;0.60;;;;;;;5.91;100.00;99797.88;5041065;28;20684;-60
2023/03/17 04:09:55;;;;;;;0.70;0.70;;;;;;;5.92;100.00;99800.38;5043259;28;20669;-60
2023/03/17 04:12:22;;;;;;;0.60;0.60;;;;;;;5.92;100.00;99808.03;5044227;28;20208;-60
2023/03/17 04:14:49;;;;;;;0.60;0.60;;;;;;;5.96;100.00;99807.16;5039513;28;20192;-60
2023/03/17 04:17:16;;;;;;;0.80;0.80;;;;;;;5.97;100.00;99811.41;5040899;28;20675;-60
2023/03/17 04:19:43;;;;;;;0.70;0.70;;;;;;;5.99;100.00;99817.31;5043362;28;20209;-60
2023/03/17 04:22:12;;;;;;;0.70;0.70;;;;;;;5.99;100.00;99817.31;5043057;28;20201;-60
2023/03/17 04:24:40;;;;;;;0.50;0.50;;;;;;;6.02;100.00;99817.31;5043232;28;20260;-60
2023/03/17 04:27:08;;;;;;;0.60;0.60;;;;;;;6.00;100.00;99821.56;5038915;28;20198;-60
2023/03/17 04:29:35;;;;;;;0.60;0.60;;;;;;;5.86;100.00;99795.34;5036983;28;20214;-60
2023/03/17 04:32:02;;;;;;;0.70;0.70;;;;;;;6.01;100.00;99824.97;5043053;28;20223;-60
2023/03/17 04:34:29;;;;;;;0.60;0.60;;;;;;;6.06;100.00;99835.97;5030956;28;20202;-60
2023/03/17 04:36:56;;;;;;;1.43;1.33;;;;;;;5.98;100.00;99828.34;5029510;28;20197;-60
2023/03/17 04:39:24;;;;;;;0.80;0.80;;;;;;;6.06;100.00;99834.25;5029103;28;20197;-60
2023/03/17 04:41:51;;;;;;;0.77;0.77;;;;;;;5.97;100.00;99821.59;5025676;28;20212;-60
2023/03/17 04:44:18;;;;;;;0.60;0.60;;;;;;;6.15;100.00;99849.47;5030819;28;20209;-60
2023/03/17 04:46:45;;;;;;;0.80;0.80;;;;;;;6.20;100.00;99849.47;5027691;28;20201;-61
2023/03/17 04:49:12;;;;;;;0.60;0.60;;;;;;;6.14;100.00;99839.31;5029068;28;20693;-60
2023/03/17 04:51:39;;;;;;;0.60;0.60;;;;;;;6.21;100.00;99853.69;5028337;28;20201;-60
2023/03/17 04:54:07;;;;;;;0.60;0.60;;;;;;;6.23;100.00;99855.41;5030467;28;20715;-60
2023/03/17 04:56:35;;;;;;;0.50;0.50;;;;;;;6.20;100.00;99850.28;5027746;28;20244;-60
2023/03/17 04:59:02;;;;;;;0.60;0.60;;;;;;;6.24;100.00;99859.59;5028247;28;20256;-60
2023/03/17 05:01:29;;;;;;;0.77;0.77;;;;;;;6.32;100.00;99865.53;5030754;28;20204;-60
2023/03/17 05:03:56;;;;;;;0.63;0.63;;;;;;;6.38;100.00;99868.88;5017935;28;20198;-61
2023/03/17 05:06:23;;;;;;;0.70;0.70;;;;;;;6.40;100.00;99874.81;5026459;28;20283;-61
2023/03/17 05:08:50;;;;;;;0.53;0.53;;;;;;;6.41;100.00;99881.59;5022496;28;20201;-61
2023/03/17 05:11:17;;;;;;;0.60;0.60;;;;;;;6.40;100.00;99873.09;5020924;28;20600;-61
2023/03/17 05:13:45;;;;;;;0.57;0.57;;;;;;;6.43;100.00;99879.91;5021121;28;20292;-61
2023/03/17 05:16:12;;;;;;;0.50;0.50;;;;;;;6.42;100.00;99879.03;5011920;28;20670;-61
2023/03/17 05:18:40;;;;;;;0.50;0.50;;;;;;;6.34;100.00;99876.53;5025357;28;20255;-61
2023/03/17 05:21:08;;;;;;;0.50;0.50;;;;;;;6.36;100.00;99878.22;5030204;28;20268;-61
2023/03/17 05:23:34;;;;;;;0.70;0.70;;;;;;;6.46;100.00;99890.06;5020231;28;20207;-61
2023/03/17 05:26:01;;;;;;;0.80;0.80;;;;;;;6.50;100.00;99896.81;5028379;28;20207;-61
2023/03/17 05:28:28;;;;;;;0.90;0.90;;;;;;;6.52;100.00;99897.66;5030208;28;20251;-61
2023/03/17 05:30:57;;;;;;;0.60;0.60;;;;;;;6.45;100.00;99883.25;5026724;28;20674;-61
2023/03/17 05:33:25;;;;;;;0.60;0.60;;;;;;;6.55;100.00;99895.94;5032839;28;20265;-61
2023/03/17 05:35:52;;;;;;;0.60;0.60;;;;;;;6.55;100.00;99895.09;5036743;28;20205;-61
2023/03/17 05:38:19;;;;;;;0.80;0.80;;;;;;;6.58;100.00;99902.72;5046826;28;20550;-61
2023/03/17 05:40:50;;;;;;;0.70;0.70;;;;;;;6.59;100.00;99901.88;5037783;28;20636;-61
2023/03/17 05:43:17;;;;;;;0.60;0.60;;;;;;;6.63;100.00;99901.81;5036467;28;20683;-61
2023/03/17 05:45:44;;;;;;;0.50;0.50;;;;;;;6.69;100.00;99913.66;5038308;28;20289;-61
2023/03/17 05:48:12;;;;;;;0.53;0.53;;;;;;;6.74;100.00;99911.94;5041311;28;20201;-61
2023/03/17 05:50:40;;;;;;;0.70;0.70;;;;;;;6.75;100.00;99913.66;5034813;28;20201;-61
2023/03/17 05:53:07;;;;;;;2.10;2.00;;;;;;;6.85;100.00;99920.34;5038406;28;20239;-61
2023/03/17 05:55:34;;;;;;;0.70;0.70;;;;;;;6.92;100.00;99916.91;5033179;28;20228;-61
2023/03/17 05:58:03;;;;;;;0.67;0.67;;;;;;;6.97;100.00;99912.66;5040339;28;20240;-61
2023/03/17 06:00:30;;;;;;;0.67;0.67;;;;;;;7.05;100.00;99928.72;5036012;28;20280;-61
2023/03/17 06:02:57;;;;;;;0.70;0.70;;;;;;;7.16;100.00;99926.09;5040570;28;20232;-60
2023/03/17 06:05:26;;;;;;;0.73;0.73;;;;;;;7.27;100.00;99940.44;5044455;28;20201;-60
2023/03/17 06:07:52;;;;;;;0.50;0.50;;;;;;;7.38;99.19;99943.75;5043945;28;20618;-62
2023/03/17 06:10:19;;;;;;;0.50;0.50;;;;;;;7.45;98.69;99947.09;5047072;28;20197;-60
2023/03/17 06:12:46;;;;;;;0.80;0.80;;;;;;;7.55;98.31;99950.41;5040003;28;20225;-60
2023/03/17 06:15:13;;;;;;;0.50;0.50;;;;;;;7.63;98.13;99934.16;5039518;28;20258;-60
2023/03/17 06:17:40;;;;;;;0.50;0.50;;;;;;;7.86;98.99;99942.44;5045043;28;20200;-63
2023/03/17 06:20:08;;;;;;;0.50;0.50;;;;;;;8.09;96.98;99954.94;5039949;28;20194;-60
2023/03/17 06:22:36;;;;;;;0.60;0.60;;;;;;;8.29;96.61;99954.75;5037057;28;20200;-59
2023/03/17 06:25:04;;;;;;;0.67;0.67;;;;;;;8.43;94.58;99955.44;5039345;28;20264;-62
2023/03/17 06:27:31;;;;;;;2.60;2.40;;;;;;;8.66;94.40;99952.56;5035603;28;20216;-62
2023/03/17 06:29:59;;;;;;;0.70;0.70;;;;;;;8.86;92.91;99965.91;5031215;28;20209;-62
2023/03/17 06:32:25;;;;;;;0.50;0.50;;;;;;;9.04;93.10;99965.66;5025615;28;20234;-63
2023/03/17 06:34:53;;;;;;;0.60;0.60;;;;;;;9.33;92.97;99963.50;5025883;28;20223;-62
2023/03/17 06:37:20;;;;;;;0.50;0.50;;;;;;;9.54;89.49;99963.97;5027969;28;20236;-62
2023/03/17 06:39:48;;;;;;;0.70;0.70;;;;;;;9.72;87.88;99968.81;5029486;28;20233;-62
2023/03/17 06:42:15;;;;;;;0.63;0.63;;;;;;;9.78;87.87;99966.13;5024150;28;21019;-62
2023/03/17 06:44:42;;;;;;;0.57;0.57;;;;;;;9.81;86.50;99966.06;5021274;28;20205;-62
2023/03/17 06:47:09;;;;;;;0.47;0.47;;;;;;;9.85;88.45;99960.03;5026742;28;20220;-62
2023/03/17 06:49:35;;;;;;;0.60;0.60;;;;;;;10.00;87.46;99967.41;5019803;28;20197;-61
2023/03/17 06:52:02;;;;;;;0.50;0.50;;;;;;;10.18;86.85;99973.97;5028815;28;20634;-61
2023/03/17 06:54:29;;;;;;;0.40;0.40;;;;;;;10.33;84.97;99969.38;5028708;28;20221;-61
2023/03/17 06:56:57;;;;;;;0.50;0.50;;;;;;;10.43;84.37;99964.91;5025306;28;20198;-61
2023/03/17 07:02:05;;;;;;;0.50;0.50;;;;;;;10.79;81.79;99970.97;4993967;28;20206;-61
2023/03/17 07:04:31;;;;;;;0.40;0.40;;;;;;;11.08;80.30;99973.72;5022587;28;20972;-63
2023/03/17 07:06:58;;;;;;;0.57;0.57;;;;;;;11.43;78.21;99981.44;5025128;28;20201;-63
2023/03/17 07:09:25;;;;;;;0.40;0.40;;;;;;;11.64;78.19;99976.63;5025907;28;20205;-63
2023/03/17 07:11:52;;;;;;;0.80;0.80;;;;;;;11.87;76.84;99982.06;5023853;28;20209;-63
2023/03/17 07:14:20;;;;;;;0.67;0.67;;;;;;;11.95;76.32;99991.28;5021523;28;20218;-63
2023/03/17 07:16:48;;;;;;;0.97;0.97;;;;;;;12.12;72.36;99985.66;5018560;28;20292;-63
2023/03/17 07:19:15;;;;;;;0.43;0.43;;;;;;;12.28;71.52;99992.06;5023540;28;20198;-63
2023/03/17 07:21:42;;;;;;;0.50;0.50;;;;;;;12.34;75.13;99989.31;5013860;28;20454;-65
2023/03/17 07:24:11;;;;;;;0.40;0.40;;;;;;;12.45;72.99;99992.44;5027549;28;20198;-65
2023/03/17 07:26:38;;;;;;;0.50;0.50;;;;;;;12.47;73.13;99990.66;5018024;28;20261;-65
2023/03/17 07:29:05;;;;;;;0.30;0.30;;;;;;;12.46;74.52;99991.56;5006789;28;20203;-65
2023/03/17 07:31:33;;;;;;;0.60;0.60;;;;;;;12.27;73.02;99995.53;5031659;28;20205;-65
2023/03/17 07:34:00;;;;;;;0.50;0.50;;;;;;;12.33;73.08;99997.09;5037442;28;20229;-65
2023/03/17 07:36:26;;;;;;;0.47;0.47;;;;;;;12.30;73.15;99992.88;5028269;28;20229;-65
2023/03/17 07:38:54;;;;;;;0.50;0.50;;;;;;;12.29;73.37;99975.75;5039330;28;20646;-63
2023/03/17 07:41:21;;;;;;;0.50;0.50;;;;;;;12.40;71.99;99981.47;5035358;28;20704;-65
2023/03/17 07:43:47;;;;;;;0.40;0.40;;;;;;;12.51;71.16;99997.41;5036793;28;20193;-65
2023/03/17 07:46:14;;;;;;;0.50;0.50;;;;;;;12.25;70.04;99992.16;5038999;28;20584;-65
2023/03/17 07:48:43;;;;;;;0.50;0.50;;;;;;;12.24;71.18;99990.47;5038520;28;20197;-65
2023/03/17 07:51:14;;;;;;;0.50;0.50;;;;;;;12.31;70.18;99993.72;5030738;28;20194;-65
2023/03/17 07:53:41;;;;;;;0.60;0.60;;;;;;;12.17;69.00;99988.97;5040347;28;20592;-65
2023/03/17 07:56:09;;;;;;;0.40;0.40;;;;;;;11.94;70.97;99991.28;5038560;28;20254;-65
2023/03/17 07:58:36;;;;;;;0.90;0.90;;;;;;;11.81;70.80;99990.78;5030867;28;20201;-65
2023/03/17 08:01:03;;;;;;;0.50;0.50;;;;;;;11.79;73.21;99959.16;5042973;28;20205;-65
2023/03/17 08:03:30;;;;;;;0.40;0.40;;;;;;;12.15;69.23;99988.13;5046707;28;20196;-65
2023/03/17 08:05:59;;;;;;;0.50;0.50;;;;;;;12.30;71.20;99998.03;5038279;28;20201;-71
2023/03/17 08:08:28;;;;;;;0.53;0.53;;;;;;;12.49;71.60;99994.03;5028031;28;20213;-66
2023/03/17 08:11:00;;;;;;;0.47;0.47;;;;;;;12.61;68.24;99988.53;5034123;28;20200;-65
2023/03/17 08:13:27;;;;;;;0.53;0.53;;;;;;;12.89;68.66;100000.59;5039868;28;20225;-66
2023/03/17 08:15:54;;;;;;;0.43;0.43;;;;;;;13.03;67.25;99995.88;5032789;28;20221;-65
2023/03/17 08:18:21;;;;;;;0.50;0.50;;;;;;;13.07;67.25;99998.31;5039275;28;20660;-65
2023/03/17 08:20:49;;;;;;;0.70;0.70;;;;;;;13.01;65.58;100000.22;5036346;28;20229;-65
2023/03/17 08:23:17;;;;;;;0.40;0.40;;;;;;;13.06;66.13;100000.91;5031320;28;20201;-65
2023/03/17 08:25:44;;;;;;;0.50;0.50;;;;;;;12.91;63.61;100006.53;5037894;28;20572;-65
2023/03/17 08:28:11;;;;;;;0.53;0.53;;;;;;;12.74;64.08;99993.31;5037426;28;20618;-68
2023/03/17 08:30:38;;;;;;;0.47;0.47;;;;;;;12.70;64.99;100000.28;5030524;28;20201;-65
2023/03/17 08:33:05;;;;;;;0.50;0.50;;;;;;;12.67;64.34;99999.53;5036932;28;20233;-65
2023/03/17 08:35:31;;;;;;;0.80;0.80;;;;;;;12.48;64.10;100002.63;5030369;28;20213;-66
2023/03/17 08:37:58;;;;;;;0.30;0.30;;;;;;;12.50;64.41;100003.44;5028649;28;20204;-65
2023/03/17 08:40:27;;;;;;;0.50;0.50;;;;;;;12.32;64.12;99991.09;5026020;28;20205;-65
2023/03/17 08:42:54;;;;;;;0.57;0.57;;;;;;;12.29;65.38;99996.31;5028470;28;20255;-65
2023/03/17 08:45:21;;;;;;;0.60;0.60;;;;;;;12.38;65.21;99988.34;5026604;28;20208;-65
2023/03/17 08:47:47;;;;;;;1.33;1.33;;;;;;;12.46;65.07;99983.84;5029209;28;20343;-65
2023/03/17 08:50:18;;;;;;;0.40;0.40;;;;;;;12.51;64.40;99987.13;5037586;28;20855;-64
2023/03/17 08:52:47;;;;;;;0.60;0.60;;;;;;;12.48;59.47;99982.06;5035801;28;20232;-65
2023/03/17 08:55:15;;;;;;;0.40;0.40;;;;;;;12.71;63.25;99977.97;5032164;28;20228;-64
2023/03/17 08:57:43;;;;;;;0.60;0.60;;;;;;;13.00;60.95;99983.94;5043272;28;20202;-65
2023/03/17 09:00:13;;;;;;;0.40;0.40;;;;;;;12.97;59.86;99980.63;5027755;28;20543;-63
2023/03/17 09:02:42;;;;;;;0.50;0.50;;;;;;;12.85;59.29;99976.69;5048752;28;20250;-65
2023/03/17 09:05:12;;;;;;;0.70;0.70;;;;;;;13.03;59.53;99985.56;5033363;28;20200;-65
2023/03/17 09:07:39;;;;;;;0.47;0.47;;;;;;;13.14;58.68;99986.13;5044943;28;20197;-65
2023/03/17 09:10:09;;;;;;;0.60;0.60;;;;;;;13.15;58.07;99980.91;5031705;28;20680;-65
2023/03/17 09:12:36;;;;;;;0.43;0.43;;;;;;;12.96;59.46;99961.75;5026173;28;20267;-65
2023/03/17 09:15:06;;;;;;;0.60;0.60;;;;;;;13.16;57.73;99979.19;5029346;28;20577;-66
2023/03/17 09:17:33;;;;;;;0.60;0.60;;;;;;;13.15;58.89;99986.06;5046210;28;20196;-64
2023/03/17 09:20:00;;;;;;;1.77;1.77;;;;;;;13.26;58.58;99982.31;5027793;28;20194;-65
2023/03/17 09:22:27;;;;;;;0.40;0.40;;;;;;;13.30;58.40;99979.59;5035200;28;20208;-64
2023/03/17 09:24:54;;;;;;;0.73;0.73;;;;;;;13.57;61.41;99972.72;5044134;28;20663;-64
2023/03/17 09:27:20;;;;;;;0.40;0.40;;;;;;;13.61;58.89;99969.97;5032344;28;20212;-65
2023/03/17 09:29:47;;;;;;;0.57;0.57;;;;;;;13.57;58.36;99968.38;5043896;28;20200;-65
2023/03/17 09:32:16;;;;;;;0.40;0.40;;;;;;;13.73;58.67;99967.88;5035421;28;20253;-65
2023/03/17 09:34:43;;;;;;;0.50;0.50;;;;;;;13.75;56.80;99972.09;5042226;28;20215;-65
2023/03/17 09:37:10;;;;;;;0.40;0.40;;;;;;;13.59;58.59;99973.50;5036333;28;20586;-65
2023/03/17 09:39:37;;;;;;;0.57;0.57;;;;;;;13.62;58.30;99968.25;5040786;28;20258;-64
2023/03/17 09:42:15;;;;;;;0.53;0.53;;;;;;;13.68;60.44;99971.47;5045443;28;20601;-64
2023/03/17 09:45:01;;;;;;;0.47;0.47;;;;;;;13.70;63.52;99973.16;5046068;28;20284;-64
2023/03/17 09:48:00;;;;;;;0.50;0.50;;;;;;;14.02;59.65;99960.81;5036927;28;20282;-64
2023/03/17 09:50:32;;;;;;;0.50;0.50;;;;;;;14.25;59.18;99966.91;5041364;28;20210;-65
2023/03/17 09:53:00;;;;;;;0.60;0.60;;;;;;;14.25;58.65;99966.91;5037571;28;20295;-64
2023/03/17 09:55:28;;;;;;;0.50;0.50;;;;;;;14.16;55.20;99968.06;5045178;28;20222;-65
2023/03/17 09:57:57;;;;;;;0.50;0.50;;;;;;;14.06;55.07;99958.97;5047002;28;20203;-64
2023/03/17 10:00:27;;;;;;;0.60;0.60;;;;;;;14.10;54.88;99963.13;5040223;28;20208;-64
2023/03/17 10:02:56;;;;;;;0.40;0.40;;;;;;;14.18;53.43;99966.28;5042081;28;20289;-64
2023/03/17 10:05:27;;;;;;;0.40;0.40;;;;;;;14.15;55.08;99956.09;5036618;28;20198;-64
2023/03/17 10:08:03;;;;;;;0.60;0.60;;;;;;;14.09;54.20;99969.16;5038532;28;20690;-64
2023/03/17 10:10:37;;;;;;;0.60;0.60;;;;;;;13.76;53.47;99953.16;5037861;28;20227;-65
2023/03/17 10:13:14;;;;;;;0.50;0.50;;;;;;;13.59;55.40;99960.63;5026954;28;20568;-64
2023/03/17 10:15:51;;;;;;;0.50;0.50;;;;;;;13.49;53.81;99952.34;5029522;28;20260;-64
2023/03/17 10:18:25;;;;;;;0.40;0.40;;;;;;;13.46;53.19;99952.47;5042758;28;20251;-64
2023/03/17 10:20:56;;;;;;;0.80;0.80;;;;;;;13.45;53.74;99948.19;5030677;28;20219;-64
2023/03/17 10:23:28;;;;;;;0.50;0.50;;;;;;;13.43;54.38;99955.13;5036674;28;20209;-64
2023/03/17 10:25:56;;;;;;;0.40;0.40;;;;;;;13.30;55.30;99946.13;5048822;28;20223;-64
2023/03/17 10:28:30;;;;;;;0.40;0.40;;;;;;;13.36;59.73;99942.50;5035830;28;20201;-64
2023/03/17 10:31:01;;;;;;;0.50;0.50;;;;;;;13.57;60.15;99947.78;5045326;28;20640;-64
2023/03/17 10:33:31;;;;;;;0.40;0.40;;;;;;;13.82;56.13;99932.34;5031150;28;20268;-64
2023/03/17 10:36:08;;;;;;;0.50;0.50;;;;;;;14.18;53.85;99936.16;5035219;28;20230;-64
2023/03/17 10:38:35;;;;;;;0.40;0.40;;;;;;;14.22;54.69;99941.25;5036342;28;20206;-64
2023/03/17 10:41:08;;;;;;;0.50;0.50;;;;;;;14.31;53.73;99938.31;5043286;28;20247;-66
2023/03/17 10:43:42;;;;;;;0.70;0.70;;;;;;;14.35;53.16;99942.47;5026373;28;20204;-65
2023/03/17 10:46:18;;;;;;;0.93;0.93;;;;;;;14.34;54.19;99943.41;5030800;28;20207;-65
2023/03/17 10:48:52;;;;;;;0.40;0.40;;;;;;;14.29;54.36;99934.94;5028730;28;20203;-65
2023/03/17 10:51:30;;;;;;;0.50;0.50;;;;;;;14.24;53.66;99939.44;5031674;28;20254;-64
2023/03/17 10:54:00;;;;;;;0.60;0.60;;;;;;;13.97;54.12;99911.16;5029164;28;20209;-65
2023/03/17 10:56:33;;;;;;;0.50;0.50;;;;;;;14.25;53.13;99936.78;5020870;28;20204;-64
2023/03/17 10:59:05;;;;;;;0.47;0.47;;;;;;;14.23;53.99;99936.00;5021270;28;20212;-64
2023/03/17 11:01:37;;;;;;;0.60;0.60;;;;;;;14.37;51.81;99931.22;5023077;28;20225;-64
2023/03/17 11:04:26;;;;;;;0.60;0.60;;;;;;;14.47;54.16;99940.31;5023756;28;20276;-65
2023/03/17 11:06:55;;;;;;;0.53;0.53;;;;;;;14.50;52.11;99926.44;5027256;28;20294;-65
2023/03/17 11:09:22;;;;;;;0.40;0.40;;;;;;;14.46;53.00;99930.88;5022391;28;20593;-65
2023/03/17 11:11:59;;;;;;;0.63;0.63;;;;;;;14.51;52.21;99926.38;5020088;28;20202;-65
2023/03/17 11:14:27;;;;;;;1.00;0.90;;;;;;;14.35;51.43;99925.25;5022930;28;20229;-64
2023/03/17 11:16:55;;;;;;;0.60;0.60;;;;;;;14.31;52.69;99910.78;5022060;28;20212;-65
2023/03/17 11:19:34;;;;;;;0.40;0.40;;;;;;;14.32;53.34;99916.78;5021909;28;20206;-65
2023/03/17 11:22:08;;;;;;;0.40;0.40;;;;;;;14.28;52.79;99905.72;5025339;28;20212;-65
2023/03/17 11:24:44;;;;;;;0.50;0.50;;;;;;;14.28;53.41;99916.03;5026755;28;20200;-65
2023/03/17 11:27:23;;;;;;;0.60;0.60;;;;;;;14.09;54.13;99904.72;5024707;28;20254;-65
2023/03/17 11:30:04;;;;;;;0.50;0.50;;;;;;;14.22;53.42;99911.09;5024458;28;20208;-65
2023/03/17 11:32:37;;;;;;;0.40;0.40;;;;;;;14.09;53.81;99899.56;5018843;28;20232;-64
2023/03/17 11:35:23;;;;;;;0.70;0.70;;;;;;;14.24;56.77;99888.72;5014595;28;20230;-65
2023/03/17 11:38:07;;;;;;;0.60;0.60;;;;;;;14.44;54.05;99906.88;5010609;28;20279;-65
2023/03/17 11:40:36;;;;;;;0.43;0.43;;;;;;;14.52;52.58;99902.25;5007201;28;20708;-65
2023/03/17 11:43:20;;;;;;;0.50;0.50;;;;;;;14.53;52.38;99891.06;5007353;28;20209;-65
2023/03/17 11:45:52;;;;;;;0.50;0.50;;;;;;;14.37;51.58;99899.44;5015665;28;20205;-65